sensor_id;sensor_type;location;lat;lon;timestamp;pressure;altitude;pressure_sealevel;temperature;humidity
11415;BME280;5763;42.714;23.244;2023-02-28T00:00:11;95009.00;;;9.30;86.01
11415;BME280;5763;42.714;23.244;2023-02-28T00:02:39;95001.03;;;9.35;85.99
11415;BME280;5763;42.714;23.244;2023-02-28T00:05:09;95015.03;;;9.37;85.81
11415;BME280;5763;42.714;23.244;2023-02-28T00:07:36;95015.03;;;9.37;85.49
11415;BME280;5763;42.714;23.244;2023-02-28T00:10:04;95020.28;;;9.44;85.39
11415;BME280;5763;42.714;23.244;2023-02-28T00:12:33;95010.34;;;9.38;84.66
11415;BME280;5763;42.714;23.244;2023-02-28T00:14:59;95029.81;;;9.52;84.69
11415;BME280;5763;42.714;23.244;2023-02-28T00:17:26;95034.72;;;9.57;84.28
11415;BME280;5763;42.714;23.244;2023-02-28T00:19:53;95036.25;;;9.58;84.20
11415;BME280;5763;42.714;23.244;2023-02-28T00:22:21;95034.50;;;9.64;84.48
11415;BME280;5763;42.714;23.244;2023-02-28T00:24:48;95026.78;;;9.63;84.41
11415;BME280;5763;42.714;23.244;2023-02-28T00:27:15;95041.41;;;9.56;84.91
11415;BME280;5763;42.714;23.244;2023-02-28T00:29:42;95046.34;;;9.61;84.54
11415;BME280;5763;42.714;23.244;2023-02-28T00:32:09;95042.94;;;9.57;84.57
11415;BME280;5763;42.714;23.244;2023-02-28T00:34:35;95045.88;;;9.50;84.97
11415;BME280;5763;42.714;23.244;2023-02-28T00:37:04;95049.91;;;9.58;84.83
11415;BME280;5763;42.714;23.244;2023-02-28T00:39:33;95054.09;;;9.63;84.69
11415;BME280;5763;42.714;23.244;2023-02-28T00:42:01;95045.91;;;9.75;84.23
11415;BME280;5763;42.714;23.244;2023-02-28T00:44:28;95042.66;;;9.80;83.62
11415;BME280;5763;42.714;23.244;2023-02-28T00:46:54;95045.69;;;9.82;83.32
11415;BME280;5763;42.714;23.244;2023-02-28T00:49:21;95044.06;;;9.85;82.51
11415;BME280;5763;42.714;23.244;2023-02-28T00:51:48;95039.13;;;9.80;82.36
11415;BME280;5763;42.714;23.244;2023-02-28T00:54:15;95042.81;;;9.61;82.42
11415;BME280;5763;42.714;23.244;2023-02-28T00:56:43;95041.06;;;9.54;82.46
11415;BME280;5763;42.714;23.244;2023-02-28T00:59:11;95046.19;;;9.52;82.70
11415;BME280;5763;42.714;23.244;2023-02-28T01:01:38;95028.19;;;9.67;81.71
11415;BME280;5763;42.714;23.244;2023-02-28T01:04:04;95024.63;;;9.42;81.57
11415;BME280;5763;42.714;23.244;2023-02-28T01:06:31;95027.94;;;9.49;81.31
11415;BME280;5763;42.714;23.244;2023-02-28T01:08:58;95028.78;;;9.34;80.59
11415;BME280;5763;42.714;23.244;2023-02-28T01:11:25;95025.47;;;9.26;80.15
11415;BME280;5763;42.714;23.244;2023-02-28T01:13:53;95019.03;;;9.20;79.98
11415;BME280;5763;42.714;23.244;2023-02-28T01:16:20;95018.25;;;9.20;79.86
11415;BME280;5763;42.714;23.244;2023-02-28T01:18:47;95024.28;;;9.27;79.09
11415;BME280;5763;42.714;23.244;2023-02-28T01:21:16;95038.22;;;9.45;78.12
11415;BME280;5763;42.714;23.244;2023-02-28T01:23:43;95038.22;;;9.45;76.97
11415;BME280;5763;42.714;23.244;2023-02-28T01:26:12;95035.84;;;9.19;78.14
11415;BME280;5763;42.714;23.244;2023-02-28T01:28:39;95034.78;;;9.00;79.01
11415;BME280;5763;42.714;23.244;2023-02-28T01:31:08;95024.59;;;8.88;79.95
11415;BME280;5763;42.714;23.244;2023-02-28T01:33:36;95033.06;;;9.06;79.37
11415;BME280;5763;42.714;23.244;2023-02-28T01:36:04;95025.34;;;9.17;78.59
11415;BME280;5763;42.714;23.244;2023-02-28T01:38:32;95030.84;;;9.30;78.02
11415;BME280;5763;42.714;23.244;2023-02-28T01:40:59;95018.63;;;9.34;77.30
11415;BME280;5763;42.714;23.244;2023-02-28T01:43:52;95027.38;;;9.29;77.31
11415;BME280;5763;42.714;23.244;2023-02-28T01:46:17;95025.63;;;9.35;77.53
11415;BME280;5763;42.714;23.244;2023-02-28T01:48:48;95023.75;;;9.32;76.96
11415;BME280;5763;42.714;23.244;2023-02-28T01:51:20;95031.63;;;9.30;77.46
11415;BME280;5763;42.714;23.244;2023-02-28T01:53:52;95039.78;;;9.18;78.23
11415;BME280;5763;42.714;23.244;2023-02-28T01:56:20;95029.03;;;9.11;78.89
11415;BME280;5763;42.714;23.244;2023-02-28T01:58:49;95035.06;;;9.18;78.45
11415;BME280;5763;42.714;23.244;2023-02-28T02:01:19;95026.78;;;9.22;78.58
11415;BME280;5763;42.714;23.244;2023-02-28T02:03:48;95026.97;;;9.15;78.69
11415;BME280;5763;42.714;23.244;2023-02-28T02:06:21;95025.53;;;9.10;79.02
11415;BME280;5763;42.714;23.244;2023-02-28T02:08:47;95034.41;;;9.14;79.70
11415;BME280;5763;42.714;23.244;2023-02-28T02:11:17;95029.28;;;9.16;79.57
11415;BME280;5763;42.714;23.244;2023-02-28T02:13:59;95027.22;;;9.20;79.54
11415;BME280;5763;42.714;23.244;2023-02-28T02:16:48;95026.28;;;9.11;78.94
11415;BME280;5763;42.714;23.244;2023-02-28T02:19:37;95022.81;;;9.10;79.23
11415;BME280;5763;42.714;23.244;2023-02-28T02:22:30;95036.03;;;9.12;79.19
11415;BME280;5763;42.714;23.244;2023-02-28T02:25:22;95022.38;;;9.12;79.32
11415;BME280;5763;42.714;23.244;2023-02-28T02:28:21;95031.00;;;9.10;79.72
11415;BME280;5763;42.714;23.244;2023-02-28T02:31:28;95024.03;;;9.09;79.24
11415;BME280;5763;42.714;23.244;2023-02-28T02:34:35;95028.31;;;8.94;80.55
11415;BME280;5763;42.714;23.244;2023-02-28T02:37:12;95034.47;;;8.82;81.22
11415;BME280;5763;42.714;23.244;2023-02-28T02:39:45;95035.94;;;8.87;81.38
11415;BME280;5763;42.714;23.244;2023-02-28T02:42:20;95030.06;;;8.88;81.82
11415;BME280;5763;42.714;23.244;2023-02-28T02:44:52;95042.66;;;8.82;82.12
11415;BME280;5763;42.714;23.244;2023-02-28T02:47:24;95042.91;;;8.88;81.82
11415;BME280;5763;42.714;23.244;2023-02-28T02:49:56;95037.13;;;8.86;81.80
11415;BME280;5763;42.714;23.244;2023-02-28T02:52:29;95044.34;;;8.92;82.16
11415;BME280;5763;42.714;23.244;2023-02-28T02:55:00;95036.50;;;8.94;82.05
11415;BME280;5763;42.714;23.244;2023-02-28T02:57:34;95026.22;;;8.70;82.89
11415;BME280;5763;42.714;23.244;2023-02-28T03:00:03;95044.22;;;8.67;83.65
11415;BME280;5763;42.714;23.244;2023-02-28T03:02:34;95028.31;;;8.66;84.00
11415;BME280;5763;42.714;23.244;2023-02-28T03:05:08;95031.63;;;8.73;84.02
11415;BME280;5763;42.714;23.244;2023-02-28T03:07:35;95046.06;;;8.86;83.71
11415;BME280;5763;42.714;23.244;2023-02-28T03:10:02;95053.94;;;8.84;84.12
11415;BME280;5763;42.714;23.244;2023-02-28T03:12:33;95055.19;;;8.96;83.20
11415;BME280;5763;42.714;23.244;2023-02-28T03:15:08;95052.00;;;8.97;82.94
11415;BME280;5763;42.714;23.244;2023-02-28T03:18:01;95058.69;;;8.96;83.29
11415;BME280;5763;42.714;23.244;2023-02-28T03:20:38;95066.56;;;8.78;83.94
11415;BME280;5763;42.714;23.244;2023-02-28T03:23:14;95059.75;;;8.70;85.33
11415;BME280;5763;42.714;23.244;2023-02-28T03:25:54;95071.16;;;8.81;84.58
11415;BME280;5763;42.714;23.244;2023-02-28T03:28:30;95066.38;;;8.85;84.06
11415;BME280;5763;42.714;23.244;2023-02-28T03:31:01;95071.22;;;8.94;83.67
11415;BME280;5763;42.714;23.244;2023-02-28T03:33:33;95074.38;;;8.92;84.13
11415;BME280;5763;42.714;23.244;2023-02-28T03:36:07;95081.72;;;8.95;84.23
11415;BME280;5763;42.714;23.244;2023-02-28T03:38:41;95083.44;;;8.89;84.27
11415;BME280;5763;42.714;23.244;2023-02-28T03:41:15;95086.38;;;8.95;84.25
11415;BME280;5763;42.714;23.244;2023-02-28T03:43:46;95077.78;;;8.96;84.57
11415;BME280;5763;42.714;23.244;2023-02-28T03:46:19;95092.34;;;9.06;84.30
11415;BME280;5763;42.714;23.244;2023-02-28T03:48:51;95082.53;;;9.08;83.74
11415;BME280;5763;42.714;23.244;2023-02-28T03:51:22;95094.13;;;9.12;83.67
11415;BME280;5763;42.714;23.244;2023-02-28T03:53:52;95082.19;;;9.06;83.93
11415;BME280;5763;42.714;23.244;2023-02-28T03:56:22;95092.34;;;9.06;84.07
11415;BME280;5763;42.714;23.244;2023-02-28T03:58:54;95091.06;;;9.10;84.18
11415;BME280;5763;42.714;23.244;2023-02-28T04:01:24;95094.47;;;9.14;83.76
11415;BME280;5763;42.714;23.244;2023-02-28T04:03:53;95097.84;;;9.18;83.25
11415;BME280;5763;42.714;23.244;2023-02-28T04:06:22;95098.53;;;9.22;83.43
11415;BME280;5763;42.714;23.244;2023-02-28T04:08:50;95089.34;;;9.16;83.61
11415;BME280;5763;42.714;23.244;2023-02-28T04:11:21;95089.97;;;9.08;84.50
11415;BME280;5763;42.714;23.244;2023-02-28T04:13:48;95077.75;;;9.12;84.63
11415;BME280;5763;42.714;23.244;2023-02-28T04:16:15;95090.72;;;9.08;84.27
11415;BME280;5763;42.714;23.244;2023-02-28T04:18:42;95090.28;;;9.10;85.00
11415;BME280;5763;42.714;23.244;2023-02-28T04:21:09;95089.34;;;9.16;84.66
11415;BME280;5763;42.714;23.244;2023-02-28T04:23:38;95090.88;;;9.17;84.74
11415;BME280;5763;42.714;23.244;2023-02-28T04:26:04;95085.56;;;9.26;84.07
11415;BME280;5763;42.714;23.244;2023-02-28T04:28:32;95090.75;;;9.37;83.47
11415;BME280;5763;42.714;23.244;2023-02-28T04:31:00;95092.38;;;9.34;83.16
11415;BME280;5763;42.714;23.244;2023-02-28T04:33:28;95086.97;;;9.31;82.79
11415;BME280;5763;42.714;23.244;2023-02-28T04:35:59;95089.63;;;9.34;82.96
11415;BME280;5763;42.714;23.244;2023-02-28T04:38:28;95099.63;;;9.25;83.34
11415;BME280;5763;42.714;23.244;2023-02-28T04:40:58;95099.47;;;9.32;83.16
11415;BME280;5763;42.714;23.244;2023-02-28T04:43:25;95088.88;;;9.34;83.13
11415;BME280;5763;42.714;23.244;2023-02-28T04:45:52;95078.75;;;9.18;82.71
11415;BME280;5763;42.714;23.244;2023-02-28T04:48:22;95103.38;;;9.31;82.72
11415;BME280;5763;42.714;23.244;2023-02-28T04:50:48;95112.19;;;9.22;83.28
11415;BME280;5763;42.714;23.244;2023-02-28T04:53:15;95115.84;;;9.32;82.53
11415;BME280;5763;42.714;23.244;2023-02-28T04:55:42;95121.31;;;9.16;82.89
11415;BME280;5763;42.714;23.244;2023-02-28T04:58:10;95104.34;;;9.08;83.12
11415;BME280;5763;42.714;23.244;2023-02-28T05:00:37;95114.38;;;9.27;82.13
11415;BME280;5763;42.714;23.244;2023-02-28T05:03:04;95121.72;;;9.30;81.94
11415;BME280;5763;42.714;23.244;2023-02-28T05:05:31;95116.50;;;9.36;81.70
11415;BME280;5763;42.714;23.244;2023-02-28T05:07:57;95121.91;;;9.23;81.86
11415;BME280;5763;42.714;23.244;2023-02-28T05:10:24;95119.53;;;9.25;81.44
11415;BME280;5763;42.714;23.244;2023-02-28T05:12:51;95125.31;;;9.27;81.63
11415;BME280;5763;42.714;23.244;2023-02-28T05:15:21;95114.38;;;9.27;81.67
11415;BME280;5763;42.714;23.244;2023-02-28T05:17:48;95118.66;;;9.28;81.72
11415;BME280;5763;42.714;23.244;2023-02-28T05:20:14;95130.59;;;9.34;81.25
11415;BME280;5763;42.714;23.244;2023-02-28T05:22:42;95126.31;;;9.33;81.12
11415;BME280;5763;42.714;23.244;2023-02-28T05:25:10;95128.28;;;9.33;81.43
11415;BME280;5763;42.714;23.244;2023-02-28T05:27:38;95132.97;;;9.32;81.81
11415;BME280;5763;42.714;23.244;2023-02-28T05:30:07;95131.56;;;9.28;81.80
11415;BME280;5763;42.714;23.244;2023-02-28T05:32:37;95136.41;;;9.36;81.45
11415;BME280;5763;42.714;23.244;2023-02-28T05:35:04;95138.25;;;9.39;81.38
11415;BME280;5763;42.714;23.244;2023-02-28T05:37:31;95148.16;;;9.33;81.59
11415;BME280;5763;42.714;23.244;2023-02-28T05:39:58;95154.41;;;9.34;81.61
11415;BME280;5763;42.714;23.244;2023-02-28T05:42:24;95144.25;;;9.34;81.18
11415;BME280;5763;42.714;23.244;2023-02-28T05:44:51;95151.91;;;9.39;81.48
11415;BME280;5763;42.714;23.244;2023-02-28T05:47:18;95146.31;;;9.30;81.86
11415;BME280;5763;42.714;23.244;2023-02-28T05:49:46;95134.38;;;9.24;82.31
11415;BME280;5763;42.714;23.244;2023-02-28T05:52:13;95148.38;;;9.26;82.69
11415;BME280;5763;42.714;23.244;2023-02-28T05:54:39;95149.78;;;9.31;82.55
11415;BME280;5763;42.714;23.244;2023-02-28T05:57:06;95154.09;;;9.44;81.70
11415;BME280;5763;42.714;23.244;2023-02-28T05:59:34;95154.81;;;9.32;82.03
11415;BME280;5763;42.714;23.244;2023-02-28T06:02:05;95154.22;;;9.41;81.82
11415;BME280;5763;42.714;23.244;2023-02-28T06:04:31;95158.72;;;9.47;81.70
11415;BME280;5763;42.714;23.244;2023-02-28T06:07:00;95144.75;;;9.45;81.98
11415;BME280;5763;42.714;23.244;2023-02-28T06:09:27;95147.94;;;9.56;81.79
11415;BME280;5763;42.714;23.244;2023-02-28T06:11:54;95158.19;;;9.52;82.00
11415;BME280;5763;42.714;23.244;2023-02-28T06:14:21;95149.56;;;9.54;81.68
11415;BME280;5763;42.714;23.244;2023-02-28T06:16:47;95159.16;;;9.46;82.01
11415;BME280;5763;42.714;23.244;2023-02-28T06:19:14;95151.56;;;9.37;82.60
11415;BME280;5763;42.714;23.244;2023-02-28T06:21:41;95162.88;;;9.52;81.98
11415;BME280;5763;42.714;23.244;2023-02-28T06:24:10;95163.47;;;9.59;81.36
11415;BME280;5763;42.714;23.244;2023-02-28T06:26:37;95165.88;;;9.57;81.99
11415;BME280;5763;42.714;23.244;2023-02-28T06:29:03;95154.72;;;9.64;81.72
11415;BME280;5763;42.714;23.244;2023-02-28T06:31:30;95166.00;;;9.66;81.98
11415;BME280;5763;42.714;23.244;2023-02-28T06:33:57;95165.66;;;9.64;82.10
11415;BME280;5763;42.714;23.244;2023-02-28T06:36:24;95171.34;;;9.57;82.39
11415;BME280;5763;42.714;23.244;2023-02-28T06:38:50;95181.22;;;9.67;82.07
11415;BME280;5763;42.714;23.244;2023-02-28T06:41:22;95179.81;;;9.75;81.51
11415;BME280;5763;42.714;23.244;2023-02-28T06:43:49;95179.47;;;9.73;81.42
11415;BME280;5763;42.714;23.244;2023-02-28T06:46:16;95180.19;;;9.61;81.74
11415;BME280;5763;42.714;23.244;2023-02-28T06:48:43;95186.00;;;9.63;81.90
11415;BME280;5763;42.714;23.244;2023-02-28T06:51:11;95183.41;;;9.72;81.44
11415;BME280;5763;42.714;23.244;2023-02-28T06:53:40;95175.25;;;9.85;81.04
11415;BME280;5763;42.714;23.244;2023-02-28T06:56:09;95182.28;;;9.98;80.43
11415;BME280;5763;42.714;23.244;2023-02-28T06:58:37;95184.34;;;9.94;80.52
11415;BME280;5763;42.714;23.244;2023-02-28T07:01:05;95184.69;;;9.96;80.19
11415;BME280;5763;42.714;23.244;2023-02-28T07:03:32;95193.53;;;10.00;80.29
11415;BME280;5763;42.714;23.244;2023-02-28T07:05:59;95189.13;;;10.06;79.77
11415;BME280;5763;42.714;23.244;2023-02-28T07:08:26;95188.44;;;10.02;79.90
11415;BME280;5763;42.714;23.244;2023-02-28T07:10:53;95188.06;;;10.00;80.20
11415;BME280;5763;42.714;23.244;2023-02-28T07:13:20;95196.22;;;10.04;80.36
11415;BME280;5763;42.714;23.244;2023-02-28T07:15:55;95188.59;;;10.11;79.65
11415;BME280;5763;42.714;23.244;2023-02-28T07:18:22;95189.72;;;9.98;80.40
11415;BME280;5763;42.714;23.244;2023-02-28T07:20:49;95189.72;;;9.98;80.73
11415;BME280;5763;42.714;23.244;2023-02-28T07:23:16;95193.53;;;10.00;80.33
11415;BME280;5763;42.714;23.244;2023-02-28T07:25:43;95211.59;;;9.98;80.44
11415;BME280;5763;42.714;23.244;2023-02-28T07:28:11;95189.13;;;10.06;79.82
11415;BME280;5763;42.714;23.244;2023-02-28T07:30:38;95192.19;;;10.08;79.72
11415;BME280;5763;42.714;23.244;2023-02-28T07:33:06;95184.84;;;10.05;79.76
11415;BME280;5763;42.714;23.244;2023-02-28T07:35:33;95190.50;;;9.98;79.81
11415;BME280;5763;42.714;23.244;2023-02-28T07:38:01;95183.69;;;9.90;79.96
11415;BME280;5763;42.714;23.244;2023-02-28T07:40:28;95189.97;;;9.75;80.76
11415;BME280;5763;42.714;23.244;2023-02-28T07:42:55;95193.00;;;9.64;81.85
11415;BME280;5763;42.714;23.244;2023-02-28T07:45:21;95190.41;;;9.73;81.92
11415;BME280;5763;42.714;23.244;2023-02-28T07:47:48;95185.31;;;9.59;82.13
11415;BME280;5763;42.714;23.244;2023-02-28T07:50:17;95187.25;;;9.46;83.24
11415;BME280;5763;42.714;23.244;2023-02-28T07:52:44;95185.13;;;9.38;84.31
11415;BME280;5763;42.714;23.244;2023-02-28T07:55:11;95186.47;;;9.46;84.36
11415;BME280;5763;42.714;23.244;2023-02-28T07:57:39;95184.78;;;9.64;83.43
11415;BME280;5763;42.714;23.244;2023-02-28T08:00:08;95188.19;;;9.68;82.69
11415;BME280;5763;42.714;23.244;2023-02-28T08:02:36;95188.56;;;9.54;83.10
11415;BME280;5763;42.714;23.244;2023-02-28T08:05:03;95187.47;;;9.52;83.39
11415;BME280;5763;42.714;23.244;2023-02-28T08:07:32;95177.25;;;9.40;83.71
11415;BME280;5763;42.714;23.244;2023-02-28T08:09:59;95183.34;;;9.31;85.37
11415;BME280;5763;42.714;23.244;2023-02-28T08:12:26;95177.03;;;9.34;85.65
11415;BME280;5763;42.714;23.244;2023-02-28T08:14:53;95191.84;;;9.33;85.76
11415;BME280;5763;42.714;23.244;2023-02-28T08:17:20;95193.41;;;9.34;86.59
11415;BME280;5763;42.714;23.244;2023-02-28T08:19:46;95192.13;;;9.39;86.13
11415;BME280;5763;42.714;23.244;2023-02-28T08:22:13;95193.19;;;9.57;85.96
11415;BME280;5763;42.714;23.244;2023-02-28T08:24:42;95199.84;;;9.56;86.26
11415;BME280;5763;42.714;23.244;2023-02-28T08:27:09;95199.66;;;9.63;85.98
11415;BME280;5763;42.714;23.244;2023-02-28T08:29:36;95205.66;;;9.58;86.04
11415;BME280;5763;42.714;23.244;2023-02-28T08:32:04;95209.38;;;9.64;85.73
11415;BME280;5763;42.714;23.244;2023-02-28T08:34:30;95202.75;;;9.65;85.34
11415;BME280;5763;42.714;23.244;2023-02-28T08:36:57;95188.66;;;9.51;85.35
11415;BME280;5763;42.714;23.244;2023-02-28T08:39:24;95197.53;;;9.55;85.83
11415;BME280;5763;42.714;23.244;2023-02-28T08:41:52;95196.91;;;9.63;85.96
11415;BME280;5763;42.714;23.244;2023-02-28T08:44:19;95193.88;;;9.61;85.71
11415;BME280;5763;42.714;23.244;2023-02-28T08:46:46;95183.78;;;9.58;85.37
11415;BME280;5763;42.714;23.244;2023-02-28T08:49:13;95207.31;;;9.68;85.24
11415;BME280;5763;42.714;23.244;2023-02-28T08:51:39;95206.66;;;9.64;85.68
11415;BME280;5763;42.714;23.244;2023-02-28T08:54:08;95195.41;;;9.62;86.10
11415;BME280;5763;42.714;23.244;2023-02-28T08:56:38;95202.78;;;9.78;85.89
11415;BME280;5763;42.714;23.244;2023-02-28T08:59:06;95200.59;;;9.85;85.11
11415;BME280;5763;42.714;23.244;2023-02-28T09:01:32;95201.81;;;9.84;84.64
11415;BME280;5763;42.714;23.244;2023-02-28T09:03:59;95200.28;;;9.83;84.71
11415;BME280;5763;42.714;23.244;2023-02-28T09:06:28;95198.84;;;9.79;85.11
11415;BME280;5763;42.714;23.244;2023-02-28T09:08:56;95191.69;;;9.97;85.19
11415;BME280;5763;42.714;23.244;2023-02-28T09:11:24;95200.56;;;10.01;84.64
11415;BME280;5763;42.714;23.244;2023-02-28T09:13:51;95194.53;;;9.94;84.96
11415;BME280;5763;42.714;23.244;2023-02-28T09:16:19;95186.56;;;9.99;84.58
11415;BME280;5763;42.714;23.244;2023-02-28T09:18:46;95195.59;;;10.12;83.70
11415;BME280;5763;42.714;23.244;2023-02-28T09:21:15;95188.69;;;10.08;84.70
11415;BME280;5763;42.714;23.244;2023-02-28T09:23:42;95200.09;;;10.19;84.59
11415;BME280;5763;42.714;23.244;2023-02-28T09:26:13;95184.78;;;10.21;84.81
11415;BME280;5763;42.714;23.244;2023-02-28T09:28:40;95190.59;;;10.23;84.46
11415;BME280;5763;42.714;23.244;2023-02-28T09:31:12;95188.28;;;10.34;84.01
11415;BME280;5763;42.714;23.244;2023-02-28T09:33:40;95180.75;;;10.38;83.94
11415;BME280;5763;42.714;23.244;2023-02-28T09:36:07;95190.28;;;10.46;83.34
11415;BME280;5763;42.714;23.244;2023-02-28T09:38:34;95187.53;;;10.46;82.97
11415;BME280;5763;42.714;23.244;2023-02-28T09:41:04;95179.44;;;10.55;82.63
11415;BME280;5763;42.714;23.244;2023-02-28T09:43:39;95180.66;;;10.54;82.80
11415;BME280;5763;42.714;23.244;2023-02-28T09:46:14;95182.75;;;10.75;82.52
11415;BME280;5763;42.714;23.244;2023-02-28T09:48:45;95182.97;;;10.93;81.90
11415;BME280;5763;42.714;23.244;2023-02-28T09:51:28;95176.94;;;10.98;81.53
11415;BME280;5763;42.714;23.244;2023-02-28T09:53:56;95183.78;;;11.15;80.70
11415;BME280;5763;42.714;23.244;2023-02-28T09:56:26;95181.22;;;11.33;79.64
11415;BME280;5763;42.714;23.244;2023-02-28T09:58:56;95182.84;;;11.43;79.09
11415;BME280;5763;42.714;23.244;2023-02-28T10:01:31;95179.38;;;11.30;79.68
11415;BME280;5763;42.714;23.244;2023-02-28T10:04:08;95166.13;;;11.29;80.31
11415;BME280;5763;42.714;23.244;2023-02-28T10:06:43;95162.81;;;11.34;80.68
11415;BME280;5763;42.714;23.244;2023-02-28T10:09:14;95162.78;;;11.59;79.48
11415;BME280;5763;42.714;23.244;2023-02-28T10:11:43;95161.63;;;11.69;79.33
11415;BME280;5763;42.714;23.244;2023-02-28T10:14:12;95153.50;;;11.78;78.87
11415;BME280;5763;42.714;23.244;2023-02-28T10:16:44;95150.41;;;11.97;77.88
11415;BME280;5763;42.714;23.244;2023-02-28T10:19:20;95149.13;;;12.11;77.50
11415;BME280;5763;42.714;23.244;2023-02-28T10:21:54;95146.25;;;12.14;77.74
11415;BME280;5763;42.714;23.244;2023-02-28T10:24:28;95151.53;;;12.30;77.42
11415;BME280;5763;42.714;23.244;2023-02-28T10:27:00;95142.69;;;12.35;77.99
11415;BME280;5763;42.714;23.244;2023-02-28T10:29:29;95129.81;;;12.45;77.52
11415;BME280;5763;42.714;23.244;2023-02-28T10:32:01;95138.16;;;12.72;76.02
11415;BME280;5763;42.714;23.244;2023-02-28T10:34:30;95127.81;;;12.94;74.95
11415;BME280;5763;42.714;23.244;2023-02-28T10:36:58;95136.00;;;13.15;74.37
11415;BME280;5763;42.714;23.244;2023-02-28T10:39:40;95123.06;;;13.34;73.55
11415;BME280;5763;42.714;23.244;2023-02-28T10:42:20;95122.59;;;13.26;72.67
11415;BME280;5763;42.714;23.244;2023-02-28T10:44:47;95112.03;;;13.25;73.28
11415;BME280;5763;42.714;23.244;2023-02-28T10:47:16;95101.97;;;13.31;72.76
11415;BME280;5763;42.714;23.244;2023-02-28T10:49:49;95109.75;;;13.32;72.06
11415;BME280;5763;42.714;23.244;2023-02-28T10:52:33;95106.88;;;13.45;72.75
11415;BME280;5763;42.714;23.244;2023-02-28T10:55:15;95093.44;;;13.47;70.37
11415;BME280;5763;42.714;23.244;2023-02-28T10:57:42;95086.56;;;13.60;70.27
11415;BME280;5763;42.714;23.244;2023-02-28T11:00:15;95089.28;;;13.78;70.46
11415;BME280;5763;42.714;23.244;2023-02-28T11:02:43;95080.41;;;13.92;69.45
11415;BME280;5763;42.714;23.244;2023-02-28T11:05:27;95082.66;;;14.12;68.11
11415;BME280;5763;42.714;23.244;2023-02-28T11:07:56;95080.63;;;14.30;66.92
11415;BME280;5763;42.714;23.244;2023-02-28T11:10:25;95084.50;;;14.24;66.31
11415;BME280;5763;42.714;23.244;2023-02-28T11:12:55;95076.41;;;14.11;66.13
11415;BME280;5763;42.714;23.244;2023-02-28T11:15:24;95071.69;;;14.03;66.55
11415;BME280;5763;42.714;23.244;2023-02-28T11:17:56;95072.44;;;14.03;66.80
11415;BME280;5763;42.714;23.244;2023-02-28T11:20:28;95065.75;;;13.95;66.13
11415;BME280;5763;42.714;23.244;2023-02-28T11:22:57;95065.13;;;13.82;66.62
11415;BME280;5763;42.714;23.244;2023-02-28T11:25:26;95057.66;;;13.83;67.70
11415;BME280;5763;42.714;23.244;2023-02-28T11:27:55;95065.31;;;13.61;68.33
11415;BME280;5763;42.714;23.244;2023-02-28T11:30:34;95056.44;;;13.66;68.32
11415;BME280;5763;42.714;23.244;2023-02-28T11:33:21;95066.81;;;13.98;67.33
11415;BME280;5763;42.714;23.244;2023-02-28T11:35:51;95053.59;;;14.11;67.14
11415;BME280;5763;42.714;23.244;2023-02-28T11:38:19;95046.41;;;14.13;66.67
11415;BME280;5763;42.714;23.244;2023-02-28T11:40:49;95055.09;;;14.30;66.44
11415;BME280;5763;42.714;23.244;2023-02-28T11:43:27;95058.81;;;14.50;65.74
11415;BME280;5763;42.714;23.244;2023-02-28T11:46:13;95054.31;;;14.71;64.13
11415;BME280;5763;42.714;23.244;2023-02-28T11:48:47;95060.88;;;14.73;64.26
11415;BME280;5763;42.714;23.244;2023-02-28T11:51:23;95064.16;;;14.86;63.16
11415;BME280;5763;42.714;23.244;2023-02-28T11:54:09;95066.34;;;14.82;63.00
11415;BME280;5763;42.714;23.244;2023-02-28T11:56:47;95057.34;;;14.73;61.92
11415;BME280;5763;42.714;23.244;2023-02-28T11:59:35;95056.44;;;14.43;63.68
11415;BME280;5763;42.714;23.244;2023-02-28T12:02:20;95046.38;;;14.64;64.80
11415;BME280;5763;42.714;23.244;2023-02-28T12:04:57;95050.63;;;15.21;62.35
11415;BME280;5763;42.714;23.244;2023-02-28T12:07:34;95054.97;;;15.74;60.96
11415;BME280;5763;42.714;23.244;2023-02-28T12:10:15;95057.81;;;15.94;59.10
11415;BME280;5763;42.714;23.244;2023-02-28T12:12:57;95058.59;;;15.80;58.08
11415;BME280;5763;42.714;23.244;2023-02-28T12:15:41;95058.53;;;15.66;59.42
11415;BME280;5763;42.714;23.244;2023-02-28T12:18:33;95049.97;;;15.49;59.04
11415;BME280;5763;42.714;23.244;2023-02-28T12:21:10;95049.59;;;15.56;58.97
11415;BME280;5763;42.714;23.244;2023-02-28T12:23:51;95047.50;;;15.51;59.41
11415;BME280;5763;42.714;23.244;2023-02-28T12:26:28;95045.66;;;15.48;59.29
11415;BME280;5763;42.714;23.244;2023-02-28T12:29:02;95053.47;;;15.26;59.95
11415;BME280;5763;42.714;23.244;2023-02-28T12:31:34;95051.69;;;15.23;59.40
11415;BME280;5763;42.714;23.244;2023-02-28T12:34:04;95048.28;;;15.28;59.30
11415;BME280;5763;42.714;23.244;2023-02-28T12:36:33;95052.63;;;15.58;57.49
11415;BME280;5763;42.714;23.244;2023-02-28T12:39:07;95031.53;;;15.55;56.64
11415;BME280;5763;42.714;23.244;2023-02-28T12:41:39;95047.38;;;15.46;58.13
11415;BME280;5763;42.714;23.244;2023-02-28T12:44:11;95047.97;;;15.26;58.14
11415;BME280;5763;42.714;23.244;2023-02-28T12:46:42;95038.53;;;15.18;58.29
11415;BME280;5763;42.714;23.244;2023-02-28T12:49:13;95042.00;;;15.04;59.40
11415;BME280;5763;42.714;23.244;2023-02-28T12:51:43;95032.88;;;14.98;59.00
11415;BME280;5763;42.714;23.244;2023-02-28T12:54:21;95038.28;;;15.07;58.72
11415;BME280;5763;42.714;23.244;2023-02-28T12:56:54;95029.28;;;15.07;58.77
11415;BME280;5763;42.714;23.244;2023-02-28T12:59:29;95037.25;;;15.05;59.10
11415;BME280;5763;42.714;23.244;2023-02-28T13:05:17;95035.03;;;14.71;59.71
11415;BME280;5763;42.714;23.244;2023-02-28T13:08:04;95038.00;;;14.58;58.67
11415;BME280;5763;42.714;23.244;2023-02-28T13:10:43;95027.38;;;14.42;59.18
11415;BME280;5763;42.714;23.244;2023-02-28T13:13:19;95019.78;;;14.28;60.68
11415;BME280;5763;42.714;23.244;2023-02-28T13:16:01;95022.25;;;14.26;60.93
11415;BME280;5763;42.714;23.244;2023-02-28T13:18:34;95013.38;;;14.22;61.07
11415;BME280;5763;42.714;23.244;2023-02-28T13:21:03;95012.75;;;14.18;60.88
11415;BME280;5763;42.714;23.244;2023-02-28T13:24:00;95012.47;;;14.16;61.06
11415;BME280;5763;42.714;23.244;2023-02-28T13:29:34;95011.88;;;14.12;61.35
11415;BME280;5763;42.714;23.244;2023-02-28T13:32:31;95004.91;;;13.84;61.81